createdAt,value
2022-12-27T00:01:27.041Z,75.95
2022-12-27T00:04:06.163Z,75.88
2022-12-27T00:06:54.241Z,75.90
2022-12-27T00:09:38.189Z,75.89
2022-12-27T00:12:22.431Z,75.82
2022-12-27T00:15:04.392Z,75.88
2022-12-27T00:17:46.776Z,76.14
2022-12-27T00:20:25.908Z,76.11
2022-12-27T00:23:06.308Z,75.92
2022-12-27T00:25:50.793Z,75.99
2022-12-27T00:28:33.996Z,76.10
2022-12-27T00:31:14.902Z,76.01
2022-12-27T00:33:58.150Z,76.12
2022-12-27T00:36:38.720Z,76.13
2022-12-27T00:39:26.990Z,76.31
2022-12-27T00:42:11.112Z,76.29
2022-12-27T00:44:53.300Z,76.20
2022-12-27T00:47:38.863Z,76.26
2022-12-27T00:50:24.277Z,76.23
2022-12-27T00:53:06.253Z,76.16
2022-12-27T00:55:51.988Z,76.01
2022-12-27T00:58:38.408Z,76.07
2022-12-27T01:01:24.887Z,76.16
2022-12-27T01:04:07.023Z,76.42
2022-12-27T01:06:50.913Z,76.27
2022-12-27T01:09:38.205Z,76.18
2022-12-27T01:12:19.690Z,76.07
2022-12-27T01:14:59.117Z,76.15
2022-12-27T01:17:38.955Z,76.16
2022-12-27T01:20:28.188Z,76.04
2022-12-27T01:23:08.698Z,76.03
2022-12-27T01:26:02.815Z,76.14
2022-12-27T01:28:46.362Z,76.12
2022-12-27T01:31:31.187Z,76.19
2022-12-27T01:34:10.936Z,76.10
2022-12-27T01:36:55.305Z,76.07
2022-12-27T01:39:35.157Z,76.03
2022-12-27T01:42:42.360Z,76.06
2022-12-27T01:45:32.064Z,76.09
2022-12-27T01:48:39.931Z,76.03
2022-12-27T01:51:21.059Z,75.76
2022-12-27T01:53:59.724Z,75.80
2022-12-27T01:56:39.296Z,75.84
2022-12-27T01:59:20.596Z,75.89
2022-12-27T02:02:02.839Z,75.82
2022-12-27T02:04:45.582Z,75.93
2022-12-27T02:07:30.581Z,75.76
2022-12-27T02:10:14.189Z,75.70
2022-12-27T02:12:59.444Z,75.50
2022-12-27T02:15:40.175Z,75.59
2022-12-27T02:18:21.913Z,75.79
2022-12-27T02:21:30.925Z,75.78
2022-12-27T02:24:25.299Z,75.81
2022-12-27T02:27:24.886Z,75.96
2022-12-27T02:30:09.325Z,75.92
2022-12-27T02:33:24.078Z,76.04
2022-12-27T02:36:12.832Z,75.83
2022-12-27T02:39:00.333Z,75.74
2022-12-27T02:41:58.898Z,75.68
2022-12-27T02:44:59.747Z,75.65
2022-12-27T02:47:58.075Z,75.78
2022-12-27T02:51:26.677Z,75.66
2022-12-27T02:54:28.599Z,75.61
2022-12-27T02:57:39.598Z,75.48
2022-12-27T03:00:42.781Z,75.52
2022-12-27T03:03:42.606Z,75.51
2022-12-27T03:07:01.968Z,75.52
2022-12-27T03:10:07.336Z,75.48
2022-12-27T03:13:19.679Z,75.53
2022-12-27T03:16:08.967Z,75.59
2022-12-27T03:19:02.124Z,75.47
2022-12-27T03:22:12.637Z,75.35
2022-12-27T03:25:13.255Z,75.26
2022-12-27T03:28:17.044Z,75.34
2022-12-27T03:31:35.851Z,75.46
2022-12-27T03:34:40.815Z,75.47
2022-12-27T03:38:04.031Z,75.49
2022-12-27T03:41:20.696Z,75.57
2022-12-27T03:44:00.252Z,75.35
2022-12-27T03:46:50.979Z,75.44
2022-12-27T03:50:14.202Z,75.34
2022-12-27T03:53:14.635Z,75.39
2022-12-27T03:55:57.340Z,75.24
2022-12-27T03:58:44.197Z,75.18
2022-12-27T04:01:29.399Z,75.21
2022-12-27T04:04:14.576Z,75.11
2022-12-27T04:06:55.935Z,75.19
2022-12-27T04:09:58.160Z,75.30
2022-12-27T04:13:02.986Z,75.30
2022-12-27T04:16:04.006Z,75.27
2022-12-27T04:19:05.143Z,75.12
2022-12-27T04:22:08.061Z,75.23
2022-12-27T04:25:05.351Z,75.08
2022-12-27T04:28:12.743Z,75.14
2022-12-27T04:31:12.713Z,75.19
2022-12-27T04:34:16.852Z,75.23
2022-12-27T04:36:57.485Z,75.09
2022-12-27T04:39:39.708Z,75.37
2022-12-27T04:42:36.975Z,75.17
2022-12-27T04:45:40.800Z,75.04
2022-12-27T04:48:41.749Z,75.00
2022-12-27T04:51:42.624Z,75.01
2022-12-27T04:54:41.492Z,75.24
2022-12-27T04:57:19.146Z,75.07
2022-12-27T05:00:16.089Z,75.13
2022-12-27T05:03:00.079Z,75.13
2022-12-27T05:05:46.247Z,75.20
2022-12-27T05:08:45.327Z,75.33
2022-12-27T05:11:47.208Z,75.13
2022-12-27T05:14:30.047Z,75.10
2022-12-27T05:17:12.861Z,75.22
2022-12-27T05:19:54.300Z,75.15
2022-12-27T05:22:54.596Z,75.09
2022-12-27T05:25:41.447Z,75.07
2022-12-27T05:28:23.291Z,75.09
2022-12-27T05:31:08.267Z,75.04
2022-12-27T05:33:48.844Z,75.19
2022-12-27T05:36:34.885Z,75.31
2022-12-27T05:39:13.657Z,75.10
2022-12-27T05:41:53.500Z,75.07
2022-12-27T05:44:32.339Z,74.97
2022-12-27T05:47:14.074Z,75.13
2022-12-27T05:49:53.981Z,75.07
2022-12-27T05:52:40.626Z,75.03
2022-12-27T05:55:12.863Z,74.97
2022-12-27T05:57:50.546Z,74.93
2022-12-27T06:00:29.252Z,75.06
2022-12-27T06:03:15.060Z,75.02
2022-12-27T06:05:55.049Z,75.16
2022-12-27T06:08:42.507Z,75.13
2022-12-27T06:11:24.498Z,75.20
2022-12-27T06:14:06.731Z,75.06
2022-12-27T06:16:46.063Z,75.01
2022-12-27T06:19:33.051Z,74.90
2022-12-27T06:22:15.419Z,74.91
2022-12-27T06:24:59.023Z,74.93
2022-12-27T06:27:37.294Z,74.81
2022-12-27T06:30:20.809Z,74.90
2022-12-27T06:33:00.243Z,74.86
2022-12-27T06:35:43.949Z,74.94
2022-12-27T06:38:22.816Z,74.92
2022-12-27T06:41:07.014Z,74.70
2022-12-27T06:43:46.206Z,74.85
2022-12-27T06:46:30.886Z,74.77
2022-12-27T06:49:09.566Z,74.75
2022-12-27T06:51:54.192Z,74.89
2022-12-27T06:54:36.482Z,74.77
2022-12-27T06:57:18.128Z,74.78
2022-12-27T07:00:02.870Z,74.62
2022-12-27T07:02:39.456Z,74.68
2022-12-27T07:05:20.340Z,74.75
2022-12-27T07:07:59.593Z,75.01
2022-12-27T07:10:40.639Z,74.85
2022-12-27T07:13:23.142Z,75.04
2022-12-27T07:16:01.155Z,74.81
2022-12-27T07:18:43.347Z,74.71
2022-12-27T07:21:25.053Z,74.62
2022-12-27T07:24:04.896Z,74.67
2022-12-27T07:26:43.127Z,74.71
2022-12-27T07:29:22.940Z,74.68
2022-12-27T07:32:00.409Z,74.69
2022-12-27T07:34:42.245Z,74.59
2022-12-27T07:37:20.527Z,74.57
2022-12-27T07:40:00.381Z,74.48
2022-12-27T07:42:40.143Z,74.60
2022-12-27T07:45:21.548Z,74.67
2022-12-27T07:47:58.930Z,74.56
2022-12-27T07:50:34.354Z,74.49
2022-12-27T07:53:09.589Z,74.49
2022-12-27T07:55:40.305Z,74.51
2022-12-27T07:58:11.292Z,74.43
2022-12-27T08:00:40.538Z,74.47
2022-12-27T08:03:08.326Z,74.48
2022-12-27T08:05:36.412Z,74.24
2022-12-27T08:08:10.234Z,74.39
2022-12-27T08:10:50.510Z,74.61
2022-12-27T08:13:24.209Z,74.44
2022-12-27T08:16:01.546Z,74.49
2022-12-27T08:18:37.002Z,74.36
2022-12-27T08:21:08.582Z,74.35
2022-12-27T08:23:36.729Z,74.14
2022-12-27T08:26:14.449Z,74.23
2022-12-27T08:28:52.070Z,74.19
2022-12-27T08:31:34.104Z,74.28
2022-12-27T08:34:14.017Z,74.19
2022-12-27T08:36:57.621Z,74.23
2022-12-27T08:39:39.230Z,74.14
2022-12-27T08:42:19.155Z,74.02
2022-12-27T08:44:55.712Z,74.09
2022-12-27T08:47:37.089Z,74.09
2022-12-27T08:50:22.432Z,74.07
2022-12-27T08:53:03.374Z,74.08
2022-12-27T08:55:46.675Z,73.93
2022-12-27T08:58:25.180Z,73.87
2022-12-27T09:01:11.821Z,73.91
2022-12-27T09:03:56.568Z,73.47
2022-12-27T09:06:35.611Z,73.83
2022-12-27T09:09:26.003Z,73.59
2022-12-27T09:12:08.676Z,73.98
2022-12-27T09:14:48.050Z,74.02
2022-12-27T09:17:28.643Z,74.10
2022-12-27T09:20:15.494Z,73.74
2022-12-27T09:22:54.915Z,74.06
2022-12-27T09:25:32.107Z,73.55
2022-12-27T09:28:18.833Z,73.90
2022-12-27T09:31:01.570Z,73.52
2022-12-27T09:33:40.630Z,73.58
2022-12-27T09:36:29.176Z,72.57
2022-12-27T09:39:06.677Z,73.00
2022-12-27T09:43:07.262Z,72.85
2022-12-27T09:45:58.396Z,72.84
2022-12-27T09:48:43.964Z,73.01
2022-12-27T09:51:49.914Z,73.13
2022-12-27T09:54:40.624Z,72.98
2022-12-27T09:57:37.291Z,72.44
2022-12-27T10:00:34.219Z,72.15
2022-12-27T10:03:20.994Z,71.81
2022-12-27T10:06:24.975Z,72.04
2022-12-27T10:09:05.923Z,71.94
2022-12-27T10:11:55.951Z,71.58
2022-12-27T10:14:52.993Z,71.26
2022-12-27T10:17:56.266Z,71.53
2022-12-27T10:20:49.677Z,71.17
2022-12-27T10:23:40.164Z,71.25
2022-12-27T10:26:27.729Z,70.63
2022-12-27T10:29:16.967Z,70.28
2022-12-27T10:31:56.308Z,70.57
2022-12-27T10:35:37.592Z,70.01
2022-12-27T10:39:30.755Z,69.92
2022-12-27T10:42:38.027Z,70.17
2022-12-27T10:45:33.223Z,70.04
2022-12-27T10:48:19.465Z,69.98
2022-12-27T10:50:53.617Z,69.90
2022-12-27T10:53:47.928Z,69.91
2022-12-27T10:56:41.197Z,69.64
2022-12-27T10:59:13.091Z,69.44
2022-12-27T11:01:48.804Z,69.42
2022-12-27T11:04:27.799Z,69.66
2022-12-27T11:07:13.045Z,69.74
2022-12-27T11:09:51.490Z,69.55
2022-12-27T11:12:33.846Z,69.52
2022-12-27T11:15:03.729Z,69.41
2022-12-27T11:17:42.067Z,69.77
2022-12-27T11:20:27.472Z,69.61
2022-12-27T11:23:04.286Z,69.73
2022-12-27T11:25:33.368Z,69.46
2022-12-27T11:28:37.161Z,69.48
2022-12-27T11:31:13.547Z,69.48
2022-12-27T11:33:53.007Z,69.26
2022-12-27T11:36:31.771Z,69.05
2022-12-27T11:39:00.395Z,69.06
2022-12-27T11:41:49.632Z,68.83
2022-12-27T11:44:38.375Z,68.78
2022-12-27T11:47:23.039Z,68.79
2022-12-27T11:50:22.441Z,68.90
2022-12-27T11:53:01.798Z,68.31
2022-12-27T11:55:39.585Z,68.47
2022-12-27T11:58:34.660Z,68.61
2022-12-27T12:01:05.617Z,68.42
2022-12-27T12:03:42.214Z,68.34
2022-12-27T12:06:15.798Z,68.40
2022-12-27T12:09:13.630Z,68.40
2022-12-27T12:11:45.687Z,68.00
2022-12-27T12:14:42.914Z,67.90
2022-12-27T12:17:19.257Z,68.01
2022-12-27T12:20:14.099Z,67.94
2022-12-27T12:23:00.287Z,67.61
2022-12-27T12:25:42.937Z,67.72
2022-12-27T12:28:58.348Z,67.67
2022-12-27T12:31:42.043Z,67.57
2022-12-27T12:34:46.852Z,67.49
2022-12-27T12:38:03.379Z,67.48
2022-12-27T12:41:01.767Z,67.47
2022-12-27T12:43:52.524Z,67.58
2022-12-27T12:46:58.806Z,67.43
2022-12-27T12:49:44.778Z,67.60
2022-12-27T12:52:41.698Z,67.48
2022-12-27T12:55:42.207Z,67.48
2022-12-27T12:58:40.885Z,67.41
2022-12-27T13:01:31.456Z,67.53
2022-12-27T13:04:10.909Z,67.43
2022-12-27T13:07:05.993Z,67.17
2022-12-27T13:10:01.206Z,67.35
2022-12-27T13:12:59.427Z,67.16
2022-12-27T13:16:16.744Z,67.22
2022-12-27T13:19:07.034Z,67.13
2022-12-27T13:22:20.793Z,66.84
2022-12-27T13:25:27.944Z,66.91
2022-12-27T13:29:06.494Z,66.92
2022-12-27T13:32:13.249Z,66.83
2022-12-27T13:35:06.955Z,67.05
2022-12-27T13:38:08.419Z,66.82
2022-12-27T13:41:06.070Z,66.94
2022-12-27T13:43:45.801Z,66.97
2022-12-27T13:46:46.327Z,66.92
2022-12-27T13:49:51.878Z,67.06
2022-12-27T13:52:59.243Z,67.08
2022-12-27T13:56:35.221Z,67.10
2022-12-27T13:59:34.845Z,67.11
2022-12-27T14:02:42.209Z,67.10
2022-12-27T14:05:50.149Z,67.08
2022-12-27T14:20:15.128Z,66.89
2022-12-27T14:27:25.974Z,66.95
2022-12-27T14:30:26.260Z,66.72
2022-12-27T14:33:41.418Z,66.83
2022-12-27T14:37:17.018Z,66.94
2022-12-27T14:40:48.257Z,66.83
2022-12-27T14:44:04.380Z,67.01
2022-12-27T14:47:36.642Z,67.03
2022-12-27T15:00:29.103Z,67.01
2022-12-27T15:03:35.829Z,66.98
2022-12-27T15:06:51.592Z,67.00
2022-12-27T15:10:15.198Z,66.95
2022-12-27T15:14:26.164Z,67.11
2022-12-27T15:17:31.344Z,67.01
2022-12-27T15:53:04.695Z,66.55
2022-12-27T15:56:03.375Z,66.84
2022-12-27T15:58:44.731Z,66.84
2022-12-27T16:01:36.023Z,66.81
2022-12-27T16:04:58.906Z,66.97
2022-12-27T16:08:03.630Z,67.14
2022-12-27T16:10:47.612Z,67.17
2022-12-27T16:13:41.453Z,67.01
2022-12-27T16:16:37.634Z,66.88
2022-12-27T16:19:51.753Z,66.98
2022-12-27T16:22:46.898Z,66.92
2022-12-27T16:25:48.684Z,66.97
2022-12-27T16:28:32.184Z,66.96
2022-12-27T16:31:17.110Z,66.96
2022-12-27T16:33:57.557Z,66.93
2022-12-27T16:36:47.491Z,66.89
2022-12-27T16:39:51.405Z,66.84
2022-12-27T16:42:59.526Z,66.99
2022-12-27T16:46:08.531Z,66.90
2022-12-27T16:49:29.027Z,66.89
2022-12-27T16:52:37.863Z,66.83
2022-12-27T16:55:40.797Z,66.78
2022-12-27T16:58:37.057Z,66.77
2022-12-27T17:01:58.784Z,66.78
2022-12-27T17:05:01.179Z,66.81
2022-12-27T17:07:55.397Z,66.92
2022-12-27T17:10:40.325Z,66.96
2022-12-27T17:13:45.002Z,66.93
2022-12-27T17:16:55.928Z,66.75
2022-12-27T17:19:45.474Z,66.80
2022-12-27T17:22:33.947Z,66.72
2022-12-27T17:25:30.067Z,66.66
2022-12-27T17:28:12.762Z,66.71
2022-12-27T17:31:05.761Z,66.70
2022-12-27T17:34:08.790Z,66.71
2022-12-27T17:37:04.296Z,66.60
2022-12-27T17:40:09.117Z,66.92
2022-12-27T17:43:25.440Z,66.81
2022-12-27T17:46:42.528Z,66.70
2022-12-27T17:49:29.694Z,66.81
2022-12-27T17:52:27.736Z,66.93
2022-12-27T17:55:41.630Z,66.90
2022-12-27T17:58:22.325Z,66.82
2022-12-27T18:01:06.959Z,66.68
2022-12-27T18:03:52.324Z,66.81
2022-12-27T18:06:34.121Z,66.75
2022-12-27T18:09:16.113Z,66.79
2022-12-27T18:11:54.312Z,66.77
2022-12-27T18:14:37.254Z,66.71
2022-12-27T18:17:33.544Z,66.70
2022-12-27T18:20:35.089Z,66.81
2022-12-27T18:23:15.361Z,66.89
2022-12-27T18:25:59.496Z,66.87
2022-12-27T18:28:39.066Z,66.65
2022-12-27T18:31:30.716Z,66.57
2022-12-27T18:34:33.438Z,66.84
2022-12-27T18:37:31.565Z,66.96
2022-12-27T18:40:23.142Z,66.94
2022-12-27T18:43:02.625Z,66.92
2022-12-27T18:45:45.208Z,66.77
2022-12-27T18:48:22.999Z,66.82
2022-12-27T18:51:04.869Z,66.92
2022-12-27T18:53:49.268Z,66.89
2022-12-27T18:56:39.074Z,66.91
2022-12-27T18:59:31.639Z,66.90
2022-12-27T19:02:46.509Z,66.92
2022-12-27T19:05:35.703Z,66.95
2022-12-27T19:08:23.596Z,67.07
2022-12-27T19:11:03.578Z,67.08
2022-12-27T19:14:08.431Z,67.05
2022-12-27T19:16:56.494Z,66.96
2022-12-27T19:19:42.033Z,66.92
2022-12-27T19:22:41.360Z,66.98
2022-12-27T19:25:32.696Z,66.94
2022-12-27T19:28:31.127Z,66.99
2022-12-27T19:31:27.353Z,66.98
2022-12-27T19:34:15.592Z,66.93
2022-12-27T19:36:58.889Z,67.03
2022-12-27T19:39:49.777Z,67.06
2022-12-27T19:42:39.970Z,67.06
2022-12-27T19:45:23.934Z,67.07
2022-12-27T19:48:08.786Z,67.08
2022-12-27T19:50:54.320Z,67.04
2022-12-27T19:53:42.091Z,67.16
2022-12-27T19:56:30.463Z,67.04
2022-12-27T19:59:24.345Z,67.04
2022-12-27T20:02:07.813Z,67.03
2022-12-27T20:04:52.342Z,67.13
2022-12-27T20:07:35.021Z,67.15
2022-12-27T20:10:18.976Z,67.15
2022-12-27T20:12:59.996Z,67.22
2022-12-27T20:15:40.558Z,67.16
2022-12-27T20:18:18.564Z,67.11
2022-12-27T20:21:00.941Z,67.14
2022-12-27T20:23:41.664Z,67.34
2022-12-27T20:26:23.859Z,67.31
2022-12-27T20:29:05.018Z,67.29
2022-12-27T20:31:49.338Z,67.19
2022-12-27T20:34:32.619Z,67.19
2022-12-27T20:37:12.288Z,67.24
2022-12-27T20:39:51.960Z,67.20
2022-12-27T20:42:32.480Z,67.29
2022-12-27T20:45:14.015Z,67.32
2022-12-27T20:47:53.833Z,67.34
2022-12-27T20:50:37.701Z,67.28
2022-12-27T20:53:16.334Z,67.25
2022-12-27T20:56:07.280Z,67.16
2022-12-27T20:58:53.753Z,67.28
2022-12-27T21:01:34.649Z,67.28
2022-12-27T21:04:17.717Z,67.34
2022-12-27T21:06:56.674Z,67.43
2022-12-27T21:09:46.319Z,67.43
2022-12-27T21:12:29.228Z,67.35
2022-12-27T21:15:11.786Z,67.41
2022-12-27T21:17:49.371Z,67.38
2022-12-27T21:20:36.017Z,67.32
2022-12-27T21:23:20.212Z,67.26
2022-12-27T21:26:03.759Z,67.28
2022-12-27T21:28:44.475Z,67.24
2022-12-27T21:31:28.527Z,67.22
2022-12-27T21:34:11.018Z,67.40
2022-12-27T21:36:58.435Z,67.37
2022-12-27T21:39:41.822Z,67.47
2022-12-27T21:42:26.387Z,67.41
2022-12-27T21:45:09.372Z,67.42
2022-12-27T21:47:50.529Z,67.48
2022-12-27T21:50:37.119Z,67.38
2022-12-27T21:53:28.158Z,67.38
2022-12-27T21:56:09.443Z,67.49
2022-12-27T21:58:54.504Z,67.49
2022-12-27T22:01:50.551Z,67.52
2022-12-27T22:04:36.150Z,67.52
2022-12-27T22:07:20.643Z,67.56
2022-12-27T22:10:11.256Z,67.48
2022-12-27T22:12:50.081Z,67.65
2022-12-27T22:15:39.763Z,67.75
2022-12-27T22:18:28.051Z,67.68
2022-12-27T22:21:13.809Z,67.68
2022-12-27T22:23:56.280Z,67.75
2022-12-27T22:26:42.403Z,67.65
2022-12-27T22:29:23.245Z,67.60
2022-12-27T22:32:06.743Z,67.60
2022-12-27T22:34:47.448Z,67.57
2022-12-27T22:37:28.623Z,67.61
2022-12-27T22:40:07.455Z,67.73
2022-12-27T22:43:12.137Z,67.52
2022-12-27T22:45:54.026Z,67.79
2022-12-27T22:48:37.602Z,67.68
2022-12-27T22:51:20.175Z,67.76
2022-12-27T22:54:09.950Z,67.81
2022-12-27T22:56:49.337Z,67.73
2022-12-27T22:59:31.577Z,67.59
2022-12-27T23:02:09.548Z,67.75
2022-12-27T23:04:50.775Z,67.36
2022-12-27T23:08:05.261Z,67.44
2022-12-27T23:10:37.299Z,67.72
2022-12-27T23:13:16.165Z,67.70
2022-12-27T23:16:05.803Z,67.93
2022-12-27T23:18:47.089Z,67.81
2022-12-27T23:21:26.862Z,68.01
2022-12-27T23:24:09.757Z,68.07
2022-12-27T23:26:51.274Z,68.05
2022-12-27T23:29:31.910Z,67.98
2022-12-27T23:32:12.764Z,67.93
2022-12-27T23:34:55.363Z,67.95
2022-12-27T23:37:33.844Z,67.95
2022-12-27T23:40:13.103Z,67.95
2022-12-27T23:42:51.839Z,67.90
2022-12-27T23:45:32.488Z,67.95
2022-12-27T23:48:13.284Z,67.98
2022-12-27T23:50:53.407Z,68.09
2022-12-27T23:53:32.053Z,68.23
2022-12-27T23:56:32.989Z,68.28
2022-12-27T23:59:18.932Z,68.14
